sensor_id;sensor_type;location;lat;lon;timestamp;P1;durP1;ratioP1;P2;durP2;ratioP2
74959;SDS011;63518;49.572;1.106;2023-02-28T00:01:22;9.50;;;3.17;;
74959;SDS011;63518;49.572;1.106;2023-02-28T00:03:49;10.95;;;3.60;;
74959;SDS011;63518;49.572;1.106;2023-02-28T00:06:17;9.10;;;3.28;;
74959;SDS011;63518;49.572;1.106;2023-02-28T00:08:45;6.68;;;2.88;;
74959;SDS011;63518;49.572;1.106;2023-02-28T00:11:13;8.40;;;3.70;;
74959;SDS011;63518;49.572;1.106;2023-02-28T00:13:42;7.45;;;3.20;;
74959;SDS011;63518;49.572;1.106;2023-02-28T00:16:16;10.50;;;3.40;;
74959;SDS011;63518;49.572;1.106;2023-02-28T00:18:48;8.30;;;3.50;;
74959;SDS011;63518;49.572;1.106;2023-02-28T00:21:16;6.38;;;2.47;;
74959;SDS011;63518;49.572;1.106;2023-02-28T00:23:45;5.93;;;2.38;;
74959;SDS011;63518;49.572;1.106;2023-02-28T00:26:12;8.35;;;3.63;;
74959;SDS011;63518;49.572;1.106;2023-02-28T00:28:39;11.40;;;3.83;;
74959;SDS011;63518;49.572;1.106;2023-02-28T00:31:06;8.48;;;3.35;;
74959;SDS011;63518;49.572;1.106;2023-02-28T00:33:34;7.35;;;2.83;;
74959;SDS011;63518;49.572;1.106;2023-02-28T00:36:04;7.93;;;2.75;;
74959;SDS011;63518;49.572;1.106;2023-02-28T00:38:32;7.25;;;3.05;;
74959;SDS011;63518;49.572;1.106;2023-02-28T00:40:59;9.45;;;3.20;;
74959;SDS011;63518;49.572;1.106;2023-02-28T00:43:33;5.28;;;2.00;;
74959;SDS011;63518;49.572;1.106;2023-02-28T00:46:01;7.45;;;2.92;;
74959;SDS011;63518;49.572;1.106;2023-02-28T00:48:29;7.93;;;3.28;;
74959;SDS011;63518;49.572;1.106;2023-02-28T00:50:56;11.05;;;3.67;;
74959;SDS011;63518;49.572;1.106;2023-02-28T00:53:23;5.78;;;2.10;;
74959;SDS011;63518;49.572;1.106;2023-02-28T00:55:51;7.00;;;2.75;;
74959;SDS011;63518;49.572;1.106;2023-02-28T00:58:20;7.65;;;3.10;;
74959;SDS011;63518;49.572;1.106;2023-02-28T01:00:51;9.63;;;3.20;;
74959;SDS011;63518;49.572;1.106;2023-02-28T01:03:20;6.68;;;2.47;;
74959;SDS011;63518;49.572;1.106;2023-02-28T01:05:49;7.90;;;2.75;;
74959;SDS011;63518;49.572;1.106;2023-02-28T01:08:18;8.40;;;2.42;;
74959;SDS011;63518;49.572;1.106;2023-02-28T01:10:46;12.77;;;4.03;;
74959;SDS011;63518;49.572;1.106;2023-02-28T01:13:27;5.45;;;2.33;;
74959;SDS011;63518;49.572;1.106;2023-02-28T01:15:55;5.47;;;1.98;;
74959;SDS011;63518;49.572;1.106;2023-02-28T01:18:24;11.55;;;3.92;;
74959;SDS011;63518;49.572;1.106;2023-02-28T01:20:55;5.60;;;2.55;;
74959;SDS011;63518;49.572;1.106;2023-02-28T01:23:22;7.57;;;2.97;;
74959;SDS011;63518;49.572;1.106;2023-02-28T01:25:50;8.73;;;3.60;;
74959;SDS011;63518;49.572;1.106;2023-02-28T01:28:18;10.57;;;3.78;;
74959;SDS011;63518;49.572;1.106;2023-02-28T01:30:49;9.27;;;3.95;;
74959;SDS011;63518;49.572;1.106;2023-02-28T01:33:17;9.98;;;4.28;;
74959;SDS011;63518;49.572;1.106;2023-02-28T01:35:44;10.82;;;3.75;;
74959;SDS011;63518;49.572;1.106;2023-02-28T01:38:11;9.60;;;3.88;;
74959;SDS011;63518;49.572;1.106;2023-02-28T01:40:48;10.07;;;3.00;;
74959;SDS011;63518;49.572;1.106;2023-02-28T01:45:48;8.00;;;3.53;;
74959;SDS011;63518;49.572;1.106;2023-02-28T01:48:15;8.43;;;3.22;;
74959;SDS011;63518;49.572;1.106;2023-02-28T01:50:43;8.38;;;3.20;;
74959;SDS011;63518;49.572;1.106;2023-02-28T01:53:14;8.43;;;3.78;;
74959;SDS011;63518;49.572;1.106;2023-02-28T01:55:45;8.27;;;3.55;;
74959;SDS011;63518;49.572;1.106;2023-02-28T01:58:16;7.65;;;3.63;;
74959;SDS011;63518;49.572;1.106;2023-02-28T02:00:43;12.00;;;4.28;;
74959;SDS011;63518;49.572;1.106;2023-02-28T02:03:12;9.40;;;3.40;;
74959;SDS011;63518;49.572;1.106;2023-02-28T02:05:43;8.25;;;3.75;;
74959;SDS011;63518;49.572;1.106;2023-02-28T02:08:19;6.15;;;2.67;;
74959;SDS011;63518;49.572;1.106;2023-02-28T02:10:51;8.55;;;3.75;;
74959;SDS011;63518;49.572;1.106;2023-02-28T02:13:41;9.32;;;3.33;;
74959;SDS011;63518;49.572;1.106;2023-02-28T02:33:43;6.95;;;2.75;;
74959;SDS011;63518;49.572;1.106;2023-02-28T02:36:16;10.57;;;4.13;;
74959;SDS011;63518;49.572;1.106;2023-02-28T02:42:03;8.75;;;3.38;;
74959;SDS011;63518;49.572;1.106;2023-02-28T02:47:20;8.48;;;3.55;;
74959;SDS011;63518;49.572;1.106;2023-02-28T02:49:52;6.38;;;2.45;;
74959;SDS011;63518;49.572;1.106;2023-02-28T02:52:25;6.45;;;2.67;;
74959;SDS011;63518;49.572;1.106;2023-02-28T02:55:03;7.82;;;2.83;;
74959;SDS011;63518;49.572;1.106;2023-02-28T02:57:45;7.07;;;2.75;;
74959;SDS011;63518;49.572;1.106;2023-02-28T03:00:16;12.98;;;3.70;;
74959;SDS011;63518;49.572;1.106;2023-02-28T03:02:47;7.75;;;3.38;;
74959;SDS011;63518;49.572;1.106;2023-02-28T03:05:20;9.90;;;4.38;;
74959;SDS011;63518;49.572;1.106;2023-02-28T03:07:52;6.13;;;2.58;;
74959;SDS011;63518;49.572;1.106;2023-02-28T03:10:30;11.18;;;4.57;;
74959;SDS011;63518;49.572;1.106;2023-02-28T03:23:39;10.48;;;3.88;;
74959;SDS011;63518;49.572;1.106;2023-02-28T03:26:19;10.80;;;3.42;;
74959;SDS011;63518;49.572;1.106;2023-02-28T03:28:52;7.70;;;3.30;;
74959;SDS011;63518;49.572;1.106;2023-02-28T03:31:24;5.72;;;2.05;;
74959;SDS011;63518;49.572;1.106;2023-02-28T03:34:07;10.57;;;3.50;;
74959;SDS011;63518;49.572;1.106;2023-02-28T03:36:38;9.40;;;3.45;;
74959;SDS011;63518;49.572;1.106;2023-02-28T03:39:14;10.07;;;4.47;;
74959;SDS011;63518;49.572;1.106;2023-02-28T03:41:47;8.70;;;3.70;;
74959;SDS011;63518;49.572;1.106;2023-02-28T03:44:20;9.35;;;4.15;;
74959;SDS011;63518;49.572;1.106;2023-02-28T03:46:53;9.50;;;3.83;;
74959;SDS011;63518;49.572;1.106;2023-02-28T03:49:28;8.13;;;3.80;;
74959;SDS011;63518;49.572;1.106;2023-02-28T03:52:02;8.98;;;3.78;;
74959;SDS011;63518;49.572;1.106;2023-02-28T03:54:34;12.48;;;5.15;;
74959;SDS011;63518;49.572;1.106;2023-02-28T03:57:12;10.35;;;3.63;;
74959;SDS011;63518;49.572;1.106;2023-02-28T03:59:54;8.55;;;4.00;;
74959;SDS011;63518;49.572;1.106;2023-02-28T04:02:26;10.30;;;3.95;;
74959;SDS011;63518;49.572;1.106;2023-02-28T04:04:54;9.07;;;3.85;;
74959;SDS011;63518;49.572;1.106;2023-02-28T04:07:21;10.23;;;4.53;;
74959;SDS011;63518;49.572;1.106;2023-02-28T04:09:49;5.78;;;2.25;;
74959;SDS011;63518;49.572;1.106;2023-02-28T04:12:17;14.23;;;4.90;;
74959;SDS011;63518;49.572;1.106;2023-02-28T04:14:44;13.30;;;5.05;;
74959;SDS011;63518;49.572;1.106;2023-02-28T04:17:11;9.93;;;4.57;;
74959;SDS011;63518;49.572;1.106;2023-02-28T04:19:39;13.18;;;4.35;;
74959;SDS011;63518;49.572;1.106;2023-02-28T04:22:07;10.50;;;4.50;;
74959;SDS011;63518;49.572;1.106;2023-02-28T04:24:35;11.45;;;4.97;;
74959;SDS011;63518;49.572;1.106;2023-02-28T04:27:03;5.47;;;2.70;;
74959;SDS011;63518;49.572;1.106;2023-02-28T04:29:31;9.77;;;4.57;;
74959;SDS011;63518;49.572;1.106;2023-02-28T04:31:59;10.30;;;4.10;;
74959;SDS011;63518;49.572;1.106;2023-02-28T04:34:28;10.55;;;3.70;;
74959;SDS011;63518;49.572;1.106;2023-02-28T04:36:56;9.90;;;3.88;;
74959;SDS011;63518;49.572;1.106;2023-02-28T04:39:38;6.22;;;2.90;;
74959;SDS011;63518;49.572;1.106;2023-02-28T04:42:06;8.38;;;3.83;;
74959;SDS011;63518;49.572;1.106;2023-02-28T04:44:34;8.15;;;3.40;;
74959;SDS011;63518;49.572;1.106;2023-02-28T04:47:01;9.93;;;3.97;;
74959;SDS011;63518;49.572;1.106;2023-02-28T04:49:28;11.80;;;4.32;;
74959;SDS011;63518;49.572;1.106;2023-02-28T04:51:55;14.15;;;4.60;;
74959;SDS011;63518;49.572;1.106;2023-02-28T04:54:23;9.20;;;3.88;;
74959;SDS011;63518;49.572;1.106;2023-02-28T04:56:49;9.13;;;3.42;;
74959;SDS011;63518;49.572;1.106;2023-02-28T04:59:17;7.93;;;3.60;;
74959;SDS011;63518;49.572;1.106;2023-02-28T05:01:48;14.23;;;3.90;;
74959;SDS011;63518;49.572;1.106;2023-02-28T05:04:15;9.75;;;3.03;;
74959;SDS011;63518;49.572;1.106;2023-02-28T05:06:43;7.43;;;3.22;;
74959;SDS011;63518;49.572;1.106;2023-02-28T05:09:11;12.27;;;3.63;;
74959;SDS011;63518;49.572;1.106;2023-02-28T05:11:38;12.98;;;4.03;;
74959;SDS011;63518;49.572;1.106;2023-02-28T05:14:12;9.85;;;4.30;;
74959;SDS011;63518;49.572;1.106;2023-02-28T05:16:41;13.00;;;5.93;;
74959;SDS011;63518;49.572;1.106;2023-02-28T05:19:08;11.02;;;4.25;;
74959;SDS011;63518;49.572;1.106;2023-02-28T05:21:36;11.13;;;4.70;;
74959;SDS011;63518;49.572;1.106;2023-02-28T05:24:08;13.63;;;5.40;;
74959;SDS011;63518;49.572;1.106;2023-02-28T05:26:38;7.53;;;3.78;;
74959;SDS011;63518;49.572;1.106;2023-02-28T05:29:07;11.30;;;5.32;;
74959;SDS011;63518;49.572;1.106;2023-02-28T05:31:38;11.10;;;4.90;;
74959;SDS011;63518;49.572;1.106;2023-02-28T05:34:05;10.02;;;4.43;;
74959;SDS011;63518;49.572;1.106;2023-02-28T05:36:32;11.50;;;5.30;;
74959;SDS011;63518;49.572;1.106;2023-02-28T05:39:00;10.50;;;4.82;;
74959;SDS011;63518;49.572;1.106;2023-02-28T05:41:28;12.75;;;5.53;;
74959;SDS011;63518;49.572;1.106;2023-02-28T05:43:57;16.05;;;6.78;;
74959;SDS011;63518;49.572;1.106;2023-02-28T05:46:24;11.20;;;5.15;;
74959;SDS011;63518;49.572;1.106;2023-02-28T05:48:52;14.07;;;5.22;;
74959;SDS011;63518;49.572;1.106;2023-02-28T05:51:19;14.80;;;6.03;;
74959;SDS011;63518;49.572;1.106;2023-02-28T05:53:47;13.65;;;5.32;;
74959;SDS011;63518;49.572;1.106;2023-02-28T05:56:16;12.02;;;5.05;;
74959;SDS011;63518;49.572;1.106;2023-02-28T05:58:43;15.55;;;6.43;;
74959;SDS011;63518;49.572;1.106;2023-02-28T06:04:04;14.63;;;6.35;;
74959;SDS011;63518;49.572;1.106;2023-02-28T06:06:32;14.27;;;4.97;;
74959;SDS011;63518;49.572;1.106;2023-02-28T06:11:31;8.98;;;4.90;;
74959;SDS011;63518;49.572;1.106;2023-02-28T06:13:59;11.82;;;3.97;;
74959;SDS011;63518;49.572;1.106;2023-02-28T06:16:28;6.80;;;3.47;;
74959;SDS011;63518;49.572;1.106;2023-02-28T06:18:57;12.45;;;5.43;;
74959;SDS011;63518;49.572;1.106;2023-02-28T06:21:26;13.40;;;4.30;;
74959;SDS011;63518;49.572;1.106;2023-02-28T06:23:57;12.77;;;5.28;;
74959;SDS011;63518;49.572;1.106;2023-02-28T06:26:24;11.90;;;5.18;;
74959;SDS011;63518;49.572;1.106;2023-02-28T06:28:54;12.75;;;5.95;;
74959;SDS011;63518;49.572;1.106;2023-02-28T06:31:22;12.75;;;4.90;;
74959;SDS011;63518;49.572;1.106;2023-02-28T06:33:50;10.13;;;4.68;;
74959;SDS011;63518;49.572;1.106;2023-02-28T06:36:17;12.95;;;5.50;;
74959;SDS011;63518;49.572;1.106;2023-02-28T06:38:45;13.00;;;4.60;;
74959;SDS011;63518;49.572;1.106;2023-02-28T06:41:12;9.20;;;4.78;;
74959;SDS011;63518;49.572;1.106;2023-02-28T06:43:40;15.55;;;6.20;;
74959;SDS011;63518;49.572;1.106;2023-02-28T06:46:10;6.55;;;3.38;;
74959;SDS011;63518;49.572;1.106;2023-02-28T06:48:40;14.05;;;5.53;;
74959;SDS011;63518;49.572;1.106;2023-02-28T06:51:14;13.23;;;4.80;;
74959;SDS011;63518;49.572;1.106;2023-02-28T06:53:43;15.07;;;6.35;;
74959;SDS011;63518;49.572;1.106;2023-02-28T06:56:11;16.42;;;5.55;;
74959;SDS011;63518;49.572;1.106;2023-02-28T06:58:39;12.15;;;3.03;;
74959;SDS011;63518;49.572;1.106;2023-02-28T07:01:07;10.02;;;4.43;;
74959;SDS011;63518;49.572;1.106;2023-02-28T07:03:35;14.63;;;6.25;;
74959;SDS011;63518;49.572;1.106;2023-02-28T07:06:04;12.73;;;5.50;;
74959;SDS011;63518;49.572;1.106;2023-02-28T07:08:32;11.45;;;5.05;;
74959;SDS011;63518;49.572;1.106;2023-02-28T07:11:00;10.65;;;5.43;;
74959;SDS011;63518;49.572;1.106;2023-02-28T07:13:28;14.85;;;5.47;;
74959;SDS011;63518;49.572;1.106;2023-02-28T07:18:25;14.95;;;5.93;;
74959;SDS011;63518;49.572;1.106;2023-02-28T07:20:52;12.50;;;5.85;;
74959;SDS011;63518;49.572;1.106;2023-02-28T07:23:20;16.83;;;5.55;;
74959;SDS011;63518;49.572;1.106;2023-02-28T07:25:49;21.92;;;7.70;;
74959;SDS011;63518;49.572;1.106;2023-02-28T07:28:17;15.20;;;6.30;;
74959;SDS011;63518;49.572;1.106;2023-02-28T07:30:45;13.82;;;6.43;;
74959;SDS011;63518;49.572;1.106;2023-02-28T07:33:12;20.90;;;6.60;;
74959;SDS011;63518;49.572;1.106;2023-02-28T07:35:39;13.05;;;6.22;;
74959;SDS011;63518;49.572;1.106;2023-02-28T07:38:07;12.15;;;5.45;;
74959;SDS011;63518;49.572;1.106;2023-02-28T07:40:34;11.93;;;5.72;;
74959;SDS011;63518;49.572;1.106;2023-02-28T07:43:02;14.40;;;6.50;;
74959;SDS011;63518;49.572;1.106;2023-02-28T07:45:30;15.05;;;7.97;;
74959;SDS011;63518;49.572;1.106;2023-02-28T07:48:01;17.58;;;6.90;;
74959;SDS011;63518;49.572;1.106;2023-02-28T07:50:28;12.30;;;6.50;;
74959;SDS011;63518;49.572;1.106;2023-02-28T07:52:58;16.50;;;8.05;;
74959;SDS011;63518;49.572;1.106;2023-02-28T07:55:25;14.00;;;6.88;;
74959;SDS011;63518;49.572;1.106;2023-02-28T07:57:53;11.52;;;4.90;;
74959;SDS011;63518;49.572;1.106;2023-02-28T08:00:20;12.38;;;6.57;;
74959;SDS011;63518;49.572;1.106;2023-02-28T08:02:48;10.88;;;6.43;;
74959;SDS011;63518;49.572;1.106;2023-02-28T08:05:15;13.65;;;6.20;;
74959;SDS011;63518;49.572;1.106;2023-02-28T08:07:45;10.93;;;5.47;;
74959;SDS011;63518;49.572;1.106;2023-02-28T08:10:14;14.80;;;6.35;;
74959;SDS011;63518;49.572;1.106;2023-02-28T08:12:40;15.05;;;7.78;;
74959;SDS011;63518;49.572;1.106;2023-02-28T08:15:08;15.57;;;7.97;;
74959;SDS011;63518;49.572;1.106;2023-02-28T08:17:35;12.30;;;5.72;;
74959;SDS011;63518;49.572;1.106;2023-02-28T08:20:02;12.30;;;6.57;;
74959;SDS011;63518;49.572;1.106;2023-02-28T08:22:30;10.02;;;3.78;;
74959;SDS011;63518;49.572;1.106;2023-02-28T08:24:57;16.90;;;5.88;;
74959;SDS011;63518;49.572;1.106;2023-02-28T08:27:24;15.45;;;6.82;;
74959;SDS011;63518;49.572;1.106;2023-02-28T08:29:51;16.77;;;6.25;;
74959;SDS011;63518;49.572;1.106;2023-02-28T08:32:18;13.02;;;4.70;;
74959;SDS011;63518;49.572;1.106;2023-02-28T08:34:56;11.85;;;4.90;;
74959;SDS011;63518;49.572;1.106;2023-02-28T08:37:23;13.68;;;5.22;;
74959;SDS011;63518;49.572;1.106;2023-02-28T08:39:51;13.20;;;5.32;;
74959;SDS011;63518;49.572;1.106;2023-02-28T08:42:21;14.75;;;6.10;;
74959;SDS011;63518;49.572;1.106;2023-02-28T08:44:49;9.50;;;3.47;;
74959;SDS011;63518;49.572;1.106;2023-02-28T08:47:16;14.57;;;5.93;;
74959;SDS011;63518;49.572;1.106;2023-02-28T08:49:43;10.52;;;4.40;;
74959;SDS011;63518;49.572;1.106;2023-02-28T08:52:10;10.18;;;4.10;;
74959;SDS011;63518;49.572;1.106;2023-02-28T08:54:37;8.00;;;4.10;;
74959;SDS011;63518;49.572;1.106;2023-02-28T08:57:03;13.00;;;5.93;;
74959;SDS011;63518;49.572;1.106;2023-02-28T08:59:31;8.85;;;4.10;;
74959;SDS011;63518;49.572;1.106;2023-02-28T09:01:59;14.43;;;5.93;;
74959;SDS011;63518;49.572;1.106;2023-02-28T09:04:26;9.25;;;3.35;;
74959;SDS011;63518;49.572;1.106;2023-02-28T09:06:53;8.75;;;3.92;;
74959;SDS011;63518;49.572;1.106;2023-02-28T09:09:20;9.13;;;3.78;;
74959;SDS011;63518;49.572;1.106;2023-02-28T09:11:47;14.43;;;4.97;;
74959;SDS011;63518;49.572;1.106;2023-02-28T09:14:15;9.30;;;2.78;;
74959;SDS011;63518;49.572;1.106;2023-02-28T09:16:43;16.60;;;6.78;;
74959;SDS011;63518;49.572;1.106;2023-02-28T09:19:11;9.82;;;3.40;;
74959;SDS011;63518;49.572;1.106;2023-02-28T09:21:39;13.65;;;5.00;;
74959;SDS011;63518;49.572;1.106;2023-02-28T09:24:09;10.82;;;3.85;;
74959;SDS011;63518;49.572;1.106;2023-02-28T09:26:38;11.02;;;3.97;;
74959;SDS011;63518;49.572;1.106;2023-02-28T09:31:47;5.45;;;2.13;;
74959;SDS011;63518;49.572;1.106;2023-02-28T09:34:15;10.73;;;4.38;;
74959;SDS011;63518;49.572;1.106;2023-02-28T09:36:44;11.60;;;4.07;;
74959;SDS011;63518;49.572;1.106;2023-02-28T09:39:12;5.55;;;2.28;;
74959;SDS011;63518;49.572;1.106;2023-02-28T09:41:42;6.22;;;2.40;;
74959;SDS011;63518;49.572;1.106;2023-02-28T09:46:47;7.35;;;3.13;;
74959;SDS011;63518;49.572;1.106;2023-02-28T09:49:25;7.13;;;3.13;;
74959;SDS011;63518;49.572;1.106;2023-02-28T09:52:01;7.63;;;3.55;;
74959;SDS011;63518;49.572;1.106;2023-02-28T09:54:32;6.70;;;2.90;;
74959;SDS011;63518;49.572;1.106;2023-02-28T09:57:01;9.15;;;3.40;;
74959;SDS011;63518;49.572;1.106;2023-02-28T10:07:18;7.60;;;3.10;;
74959;SDS011;63518;49.572;1.106;2023-02-28T10:09:47;7.72;;;3.05;;
74959;SDS011;63518;49.572;1.106;2023-02-28T10:12:18;6.30;;;2.38;;
74959;SDS011;63518;49.572;1.106;2023-02-28T10:17:19;8.77;;;2.75;;
74959;SDS011;63518;49.572;1.106;2023-02-28T10:32:38;5.68;;;1.50;;
74959;SDS011;63518;49.572;1.106;2023-02-28T10:37:42;7.38;;;3.33;;
74959;SDS011;63518;49.572;1.106;2023-02-28T10:45:23;7.00;;;2.45;;
74959;SDS011;63518;49.572;1.106;2023-02-28T10:47:59;6.28;;;2.05;;
74959;SDS011;63518;49.572;1.106;2023-02-28T10:52:54;6.15;;;2.03;;
74959;SDS011;63518;49.572;1.106;2023-02-28T10:55:22;5.78;;;2.03;;
74959;SDS011;63518;49.572;1.106;2023-02-28T10:57:52;6.90;;;2.08;;
74959;SDS011;63518;49.572;1.106;2023-02-28T11:00:20;5.90;;;1.85;;
74959;SDS011;63518;49.572;1.106;2023-02-28T11:02:51;5.55;;;2.05;;
74959;SDS011;63518;49.572;1.106;2023-02-28T11:05:23;11.23;;;4.47;;
74959;SDS011;63518;49.572;1.106;2023-02-28T11:07:52;7.05;;;2.42;;
74959;SDS011;63518;49.572;1.106;2023-02-28T11:10:21;7.95;;;2.22;;
74959;SDS011;63518;49.572;1.106;2023-02-28T11:12:54;9.43;;;3.65;;
74959;SDS011;63518;49.572;1.106;2023-02-28T11:15:34;5.35;;;1.98;;
74959;SDS011;63518;49.572;1.106;2023-02-28T11:20:38;6.85;;;2.28;;
74959;SDS011;63518;49.572;1.106;2023-02-28T11:23:06;11.57;;;4.55;;
74959;SDS011;63518;49.572;1.106;2023-02-28T11:25:40;10.15;;;4.15;;
74959;SDS011;63518;49.572;1.106;2023-02-28T11:28:23;8.23;;;2.67;;
74959;SDS011;63518;49.572;1.106;2023-02-28T11:31:36;7.75;;;2.33;;
74959;SDS011;63518;49.572;1.106;2023-02-28T11:33:53;9.07;;;3.25;;
74959;SDS011;63518;49.572;1.106;2023-02-28T11:36:23;5.72;;;1.98;;
74959;SDS011;63518;49.572;1.106;2023-02-28T11:39:10;10.73;;;3.85;;
74959;SDS011;63518;49.572;1.106;2023-02-28T11:41:50;8.32;;;2.85;;
74959;SDS011;63518;49.572;1.106;2023-02-28T11:44:42;5.07;;;1.52;;
74959;SDS011;63518;49.572;1.106;2023-02-28T11:52:54;6.15;;;2.40;;
74959;SDS011;63518;49.572;1.106;2023-02-28T11:55:35;7.55;;;2.13;;
74959;SDS011;63518;49.572;1.106;2023-02-28T11:58:24;5.43;;;1.85;;
74959;SDS011;63518;49.572;1.106;2023-02-28T12:25:45;5.93;;;2.25;;
74959;SDS011;63518;49.572;1.106;2023-02-28T12:28:43;7.72;;;2.58;;
74959;SDS011;63518;49.572;1.106;2023-02-28T12:31:17;8.65;;;3.00;;
74959;SDS011;63518;49.572;1.106;2023-02-28T12:33:52;7.20;;;2.17;;
74959;SDS011;63518;49.572;1.106;2023-02-28T12:36:23;6.85;;;2.67;;
74959;SDS011;63518;49.572;1.106;2023-02-28T12:41:49;10.02;;;2.50;;
74959;SDS011;63518;49.572;1.106;2023-02-28T12:44:27;7.68;;;3.38;;
74959;SDS011;63518;49.572;1.106;2023-02-28T12:47:00;6.93;;;2.50;;
74959;SDS011;63518;49.572;1.106;2023-02-28T12:49:33;7.07;;;2.38;;
74959;SDS011;63518;49.572;1.106;2023-02-28T12:52:05;7.22;;;2.92;;
74959;SDS011;63518;49.572;1.106;2023-02-28T12:57:32;8.35;;;3.08;;
74959;SDS011;63518;49.572;1.106;2023-02-28T13:00:10;6.05;;;2.13;;
74959;SDS011;63518;49.572;1.106;2023-02-28T13:06:12;8.02;;;3.15;;
74959;SDS011;63518;49.572;1.106;2023-02-28T13:11:05;6.53;;;2.40;;
74959;SDS011;63518;49.572;1.106;2023-02-28T13:13:45;8.25;;;3.60;;
74959;SDS011;63518;49.572;1.106;2023-02-28T13:16:13;8.20;;;3.70;;
74959;SDS011;63518;49.572;1.106;2023-02-28T13:18:44;7.28;;;2.53;;
74959;SDS011;63518;49.572;1.106;2023-02-28T13:21:26;8.90;;;3.42;;
74959;SDS011;63518;49.572;1.106;2023-02-28T13:23:57;7.88;;;3.33;;
74959;SDS011;63518;49.572;1.106;2023-02-28T13:34:32;9.63;;;4.53;;
74959;SDS011;63518;49.572;1.106;2023-02-28T13:37:30;10.35;;;4.20;;
74959;SDS011;63518;49.572;1.106;2023-02-28T13:55:23;8.23;;;4.05;;
74959;SDS011;63518;49.572;1.106;2023-02-28T14:08:37;10.30;;;4.88;;
74959;SDS011;63518;49.572;1.106;2023-02-28T14:11:22;11.30;;;6.28;;
74959;SDS011;63518;49.572;1.106;2023-02-28T14:14:01;13.55;;;5.95;;
74959;SDS011;63518;49.572;1.106;2023-02-28T14:19:27;14.02;;;6.95;;
74959;SDS011;63518;49.572;1.106;2023-02-28T14:32:15;15.18;;;7.97;;
74959;SDS011;63518;49.572;1.106;2023-02-28T14:34:55;12.80;;;6.10;;
74959;SDS011;63518;49.572;1.106;2023-02-28T14:37:41;14.65;;;7.97;;
74959;SDS011;63518;49.572;1.106;2023-02-28T14:40:16;16.98;;;6.68;;
74959;SDS011;63518;49.572;1.106;2023-02-28T14:42:49;17.48;;;8.07;;
74959;SDS011;63518;49.572;1.106;2023-02-28T14:45:23;15.73;;;7.78;;
74959;SDS011;63518;49.572;1.106;2023-02-28T14:47:50;13.98;;;6.38;;
74959;SDS011;63518;49.572;1.106;2023-02-28T14:50:20;14.55;;;8.30;;
74959;SDS011;63518;49.572;1.106;2023-02-28T14:52:53;15.38;;;6.70;;
74959;SDS011;63518;49.572;1.106;2023-02-28T14:55:26;14.48;;;7.80;;
74959;SDS011;63518;49.572;1.106;2023-02-28T14:57:57;13.32;;;7.03;;
74959;SDS011;63518;49.572;1.106;2023-02-28T15:00:30;15.55;;;8.13;;
74959;SDS011;63518;49.572;1.106;2023-02-28T15:02:59;14.80;;;6.10;;
74959;SDS011;63518;49.572;1.106;2023-02-28T15:05:31;12.10;;;6.03;;
74959;SDS011;63518;49.572;1.106;2023-02-28T15:10:45;14.43;;;6.93;;
74959;SDS011;63518;49.572;1.106;2023-02-28T15:13:18;11.32;;;5.72;;
74959;SDS011;63518;49.572;1.106;2023-02-28T15:18:31;10.80;;;5.88;;
74959;SDS011;63518;49.572;1.106;2023-02-28T15:21:11;12.80;;;7.30;;
74959;SDS011;63518;49.572;1.106;2023-02-28T15:23:45;10.05;;;5.60;;
74959;SDS011;63518;49.572;1.106;2023-02-28T15:26:18;12.82;;;6.80;;
74959;SDS011;63518;49.572;1.106;2023-02-28T15:28:52;13.13;;;6.82;;
74959;SDS011;63518;49.572;1.106;2023-02-28T15:34:17;13.10;;;7.38;;
74959;SDS011;63518;49.572;1.106;2023-02-28T15:37:06;10.32;;;4.78;;
74959;SDS011;63518;49.572;1.106;2023-02-28T15:39:53;14.02;;;8.05;;
74959;SDS011;63518;49.572;1.106;2023-02-28T15:42:22;14.95;;;6.28;;
74959;SDS011;63518;49.572;1.106;2023-02-28T15:44:58;12.18;;;4.97;;
74959;SDS011;63518;49.572;1.106;2023-02-28T15:47:27;12.13;;;5.45;;
74959;SDS011;63518;49.572;1.106;2023-02-28T15:49:59;13.82;;;7.53;;
74959;SDS011;63518;49.572;1.106;2023-02-28T15:52:41;12.05;;;6.35;;
74959;SDS011;63518;49.572;1.106;2023-02-28T15:55:21;12.55;;;6.35;;
74959;SDS011;63518;49.572;1.106;2023-02-28T15:57:52;11.30;;;6.10;;
74959;SDS011;63518;49.572;1.106;2023-02-28T16:00:22;9.80;;;4.85;;
74959;SDS011;63518;49.572;1.106;2023-02-28T16:02:50;12.00;;;6.03;;
74959;SDS011;63518;49.572;1.106;2023-02-28T16:05:26;9.45;;;4.22;;
74959;SDS011;63518;49.572;1.106;2023-02-28T16:07:57;13.70;;;7.50;;
74959;SDS011;63518;49.572;1.106;2023-02-28T16:10:27;13.60;;;7.18;;
74959;SDS011;63518;49.572;1.106;2023-02-28T16:12:55;13.95;;;6.50;;
74959;SDS011;63518;49.572;1.106;2023-02-28T16:15:28;13.65;;;6.40;;
74959;SDS011;63518;49.572;1.106;2023-02-28T16:18:08;13.32;;;6.70;;
74959;SDS011;63518;49.572;1.106;2023-02-28T16:20:38;10.27;;;5.05;;
74959;SDS011;63518;49.572;1.106;2023-02-28T16:23:05;10.23;;;6.00;;
74959;SDS011;63518;49.572;1.106;2023-02-28T16:25:37;10.90;;;5.50;;
74959;SDS011;63518;49.572;1.106;2023-02-28T16:28:25;12.75;;;6.35;;
74959;SDS011;63518;49.572;1.106;2023-02-28T16:31:04;11.82;;;5.63;;
74959;SDS011;63518;49.572;1.106;2023-02-28T16:33:33;10.90;;;5.07;;
74959;SDS011;63518;49.572;1.106;2023-02-28T16:36:00;15.13;;;7.40;;
74959;SDS011;63518;49.572;1.106;2023-02-28T16:38:29;12.75;;;6.13;;
74959;SDS011;63518;49.572;1.106;2023-02-28T16:40:57;12.13;;;5.82;;
74959;SDS011;63518;49.572;1.106;2023-02-28T16:43:27;11.65;;;4.93;;
74959;SDS011;63518;49.572;1.106;2023-02-28T16:45:55;11.38;;;5.53;;
74959;SDS011;63518;49.572;1.106;2023-02-28T16:48:27;9.23;;;4.35;;
74959;SDS011;63518;49.572;1.106;2023-02-28T16:50:54;14.20;;;6.43;;
74959;SDS011;63518;49.572;1.106;2023-02-28T16:53:20;10.90;;;4.90;;
74959;SDS011;63518;49.572;1.106;2023-02-28T16:55:47;15.40;;;6.95;;
74959;SDS011;63518;49.572;1.106;2023-02-28T16:58:15;12.35;;;6.18;;
74959;SDS011;63518;49.572;1.106;2023-02-28T17:00:43;13.52;;;6.65;;
74959;SDS011;63518;49.572;1.106;2023-02-28T17:03:32;12.80;;;6.80;;
74959;SDS011;63518;49.572;1.106;2023-02-28T17:06:00;13.73;;;6.65;;
74959;SDS011;63518;49.572;1.106;2023-02-28T17:08:28;13.07;;;6.18;;
74959;SDS011;63518;49.572;1.106;2023-02-28T17:10:58;13.82;;;6.68;;
74959;SDS011;63518;49.572;1.106;2023-02-28T17:13:26;12.45;;;6.10;;
74959;SDS011;63518;49.572;1.106;2023-02-28T17:15:53;13.95;;;7.65;;
74959;SDS011;63518;49.572;1.106;2023-02-28T17:18:23;10.18;;;4.30;;
74959;SDS011;63518;49.572;1.106;2023-02-28T17:20:50;12.55;;;6.00;;
74959;SDS011;63518;49.572;1.106;2023-02-28T17:23:18;14.55;;;7.72;;
74959;SDS011;63518;49.572;1.106;2023-02-28T17:25:48;14.63;;;8.00;;
74959;SDS011;63518;49.572;1.106;2023-02-28T17:28:23;18.88;;;8.95;;
74959;SDS011;63518;49.572;1.106;2023-02-28T17:30:53;15.98;;;7.82;;
74959;SDS011;63518;49.572;1.106;2023-02-28T17:33:21;19.35;;;9.13;;
74959;SDS011;63518;49.572;1.106;2023-02-28T17:35:48;18.15;;;7.97;;
74959;SDS011;63518;49.572;1.106;2023-02-28T17:38:16;19.92;;;9.07;;
74959;SDS011;63518;49.572;1.106;2023-02-28T17:40:45;16.42;;;8.13;;
74959;SDS011;63518;49.572;1.106;2023-02-28T17:43:12;14.60;;;7.85;;
74959;SDS011;63518;49.572;1.106;2023-02-28T17:45:39;13.88;;;7.45;;
74959;SDS011;63518;49.572;1.106;2023-02-28T17:48:06;14.60;;;7.22;;
74959;SDS011;63518;49.572;1.106;2023-02-28T17:50:35;15.57;;;6.63;;
74959;SDS011;63518;49.572;1.106;2023-02-28T17:53:03;16.23;;;6.45;;
74959;SDS011;63518;49.572;1.106;2023-02-28T17:55:30;13.23;;;7.05;;
74959;SDS011;63518;49.572;1.106;2023-02-28T17:57:57;16.00;;;7.13;;
74959;SDS011;63518;49.572;1.106;2023-02-28T18:00:24;14.77;;;6.20;;
74959;SDS011;63518;49.572;1.106;2023-02-28T18:02:51;9.32;;;5.15;;
74959;SDS011;63518;49.572;1.106;2023-02-28T18:05:19;15.85;;;7.22;;